Latest METAR for ESKM

Raw:

2021/09/23 01:20 ESKM 230120Z AUTO VRB04KT 9999 -RA FEW011/// SCT019/// OVC064/// 12/12 Q1001 REDZ

Decoded:
Siljan / Mora, Sweden (ESKM) 60-58N 014-31E
Sep 22, 2021 - 09:20 PM EDT / 2021.09.23 0120 UTC
Wind: Variable at 5 MPH (4 KT):0
Visibility: greater than 7 mile(s):0
Sky conditions: overcast
Weather: light rain
Temperature: 53 F (12 C)
Dew Point: 53 F (12 C)
Relative Humidity: 100%
Pressure (altimeter): 29.56 in. Hg (1001 hPa)
ob: ESKM 230120Z AUTO VRB04KT 9999 -RA FEW011/// SCT019/// OVC064/// 12/12 Q1001 REDZ
cycle: 1

Back